sensor_id;sensor_type;location;lat;lon;timestamp;pressure;altitude;pressure_sealevel;temperature;humidity
56518;BME280;42419;48.760;2.322;2023-05-10T00:01:20;100579.56;;;21.05;51.87
56518;BME280;42419;48.760;2.322;2023-05-10T00:03:45;100584.78;;;21.08;51.78
56518;BME280;42419;48.760;2.322;2023-05-10T00:06:10;100572.69;;;20.99;51.68
56518;BME280;42419;48.760;2.322;2023-05-10T00:08:36;100572.41;;;21.05;51.74
56518;BME280;42419;48.760;2.322;2023-05-10T00:11:01;100580.44;;;21.05;51.59
56518;BME280;42419;48.760;2.322;2023-05-10T00:13:26;100547.56;;;20.83;51.52
56518;BME280;42419;48.760;2.322;2023-05-10T00:15:52;100556.13;;;20.91;51.62
56518;BME280;42419;48.760;2.322;2023-05-10T00:18:17;100579.56;;;21.05;51.38
56518;BME280;42419;48.760;2.322;2023-05-10T00:20:42;100581.38;;;21.04;51.32
56518;BME280;42419;48.760;2.322;2023-05-10T00:23:07;100562.34;;;20.92;51.14
56518;BME280;42419;48.760;2.322;2023-05-10T00:25:33;100585.06;;;21.02;51.18
56518;BME280;42419;48.760;2.322;2023-05-10T00:27:58;100581.44;;;21.03;51.15
56518;BME280;42419;48.760;2.322;2023-05-10T00:30:26;100572.69;;;20.99;51.25
56518;BME280;42419;48.760;2.322;2023-05-10T00:32:51;100577.97;;;21.01;51.16
56518;BME280;42419;48.760;2.322;2023-05-10T00:35:16;100586.88;;;21.01;51.20
56518;BME280;42419;48.760;2.322;2023-05-10T00:37:42;100586.94;;;21.00;51.09
56518;BME280;42419;48.760;2.322;2023-05-10T00:40:07;100584.47;;;20.95;51.03
56518;BME280;42419;48.760;2.322;2023-05-10T00:42:33;100589.69;;;20.98;50.62
56518;BME280;42419;48.760;2.322;2023-05-10T00:44:58;100595.03;;;20.98;50.91
56518;BME280;42419;48.760;2.322;2023-05-10T00:47:24;100593.22;;;20.99;50.67
56518;BME280;42419;48.760;2.322;2023-05-10T00:49:49;100591.47;;;20.98;50.64
56518;BME280;42419;48.760;2.322;2023-05-10T00:52:15;100595.03;;;20.98;50.77
56518;BME280;42419;48.760;2.322;2023-05-10T00:54:41;100592.44;;;20.97;50.78
56518;BME280;42419;48.760;2.322;2023-05-10T00:57:06;100589.78;;;20.97;50.82
56518;BME280;42419;48.760;2.322;2023-05-10T00:59:32;100594.25;;;20.96;50.59
56518;BME280;42419;48.760;2.322;2023-05-10T01:01:58;100587.63;;;20.85;50.58
56518;BME280;42419;48.760;2.322;2023-05-10T01:04:23;100596.25;;;20.91;50.48
56518;BME280;42419;48.760;2.322;2023-05-10T01:06:51;100610.38;;;20.95;50.44
56518;BME280;42419;48.760;2.322;2023-05-10T01:09:18;100616.66;;;20.94;50.33
56518;BME280;42419;48.760;2.322;2023-05-10T01:11:44;100601.53;;;20.93;50.26
56518;BME280;42419;48.760;2.322;2023-05-10T01:14:10;100597.03;;;20.93;50.40
56518;BME280;42419;48.760;2.322;2023-05-10T01:16:40;100568.59;;;20.72;50.02
56518;BME280;42419;48.760;2.322;2023-05-10T01:19:14;100585.88;;;20.84;50.39
56518;BME280;42419;48.760;2.322;2023-05-10T01:22:01;100601.63;;;20.91;49.90
56518;BME280;42419;48.760;2.322;2023-05-10T01:24:46;100604.28;;;20.91;50.14
56518;BME280;42419;48.760;2.322;2023-05-10T01:36:13;100605.38;;;20.87;49.86
56518;BME280;42419;48.760;2.322;2023-05-10T01:39:08;100610.78;;;20.86;49.79
56518;BME280;42419;48.760;2.322;2023-05-10T01:44:33;100606.50;;;20.82;49.87
56518;BME280;42419;48.760;2.322;2023-05-10T01:49:54;100609.13;;;20.83;49.90
56518;BME280;42419;48.760;2.322;2023-05-10T01:52:26;100609.13;;;20.83;49.53
56518;BME280;42419;48.760;2.322;2023-05-10T01:55:00;100613.00;;;20.76;49.69
56518;BME280;42419;48.760;2.322;2023-05-10T01:57:35;100615.41;;;20.82;49.56
56518;BME280;42419;48.760;2.322;2023-05-10T02:00:03;100624.31;;;20.83;49.58
56518;BME280;42419;48.760;2.322;2023-05-10T02:02:30;100615.41;;;20.82;49.44
56518;BME280;42419;48.760;2.322;2023-05-10T02:04:59;100625.19;;;20.83;49.28
56518;BME280;42419;48.760;2.322;2023-05-10T02:07:26;100625.19;;;20.83;49.67
56518;BME280;42419;48.760;2.322;2023-05-10T02:09:54;100626.97;;;20.83;49.38
56518;BME280;42419;48.760;2.322;2023-05-10T02:12:21;100629.66;;;20.83;49.49
56518;BME280;42419;48.760;2.322;2023-05-10T02:14:49;100626.13;;;20.82;49.46
56518;BME280;42419;48.760;2.322;2023-05-10T02:17:16;100610.47;;;20.73;49.35
56518;BME280;42419;48.760;2.322;2023-05-10T02:19:43;100626.13;;;20.82;49.29
56518;BME280;42419;48.760;2.322;2023-05-10T02:22:09;100627.03;;;20.81;49.24
56518;BME280;42419;48.760;2.322;2023-05-10T02:24:36;100618.09;;;20.82;49.49
56518;BME280;42419;48.760;2.322;2023-05-10T02:27:03;100624.38;;;20.81;49.19
56518;BME280;42419;48.760;2.322;2023-05-10T02:29:31;100626.13;;;20.82;49.41
56518;BME280;42419;48.760;2.322;2023-05-10T02:31:57;100627.97;;;20.80;49.16
56518;BME280;42419;48.760;2.322;2023-05-10T02:34:23;100627.03;;;20.81;49.03
56518;BME280;42419;48.760;2.322;2023-05-10T02:36:50;100629.72;;;20.81;49.17
56518;BME280;42419;48.760;2.322;2023-05-10T02:39:18;100622.63;;;20.80;49.02
56518;BME280;42419;48.760;2.322;2023-05-10T02:41:45;100610.31;;;20.76;49.03
56518;BME280;42419;48.760;2.322;2023-05-10T02:44:14;100616.53;;;20.77;48.94
56518;BME280;42419;48.760;2.322;2023-05-10T02:46:40;100608.38;;;20.80;49.09
56518;BME280;42419;48.760;2.322;2023-05-10T02:49:05;100619.06;;;20.80;49.10
56518;BME280;42419;48.760;2.322;2023-05-10T02:51:34;100612.88;;;20.79;49.02
56518;BME280;42419;48.760;2.322;2023-05-10T02:54:10;100615.56;;;20.79;48.80
56518;BME280;42419;48.760;2.322;2023-05-10T02:56:42;100613.72;;;20.80;48.73
56518;BME280;42419;48.760;2.322;2023-05-10T02:59:12;100609.38;;;20.77;48.72
56518;BME280;42419;48.760;2.322;2023-05-10T03:01:37;100610.22;;;20.79;48.68
56518;BME280;42419;48.760;2.322;2023-05-10T03:04:03;100610.22;;;20.79;48.66
56518;BME280;42419;48.760;2.322;2023-05-10T03:06:28;100603.97;;;20.79;48.87
56518;BME280;42419;48.760;2.322;2023-05-10T03:08:54;100603.97;;;20.79;48.80
56518;BME280;42419;48.760;2.322;2023-05-10T03:11:36;100574.19;;;20.66;48.31
56518;BME280;42419;48.760;2.322;2023-05-10T03:14:22;100596.00;;;20.77;48.39
56518;BME280;42419;48.760;2.322;2023-05-10T03:17:11;100607.63;;;20.76;48.58
56518;BME280;42419;48.760;2.322;2023-05-10T03:22:23;100606.72;;;20.77;48.60
56518;BME280;42419;48.760;2.322;2023-05-10T03:24:49;100600.50;;;20.77;48.64
56518;BME280;42419;48.760;2.322;2023-05-10T03:27:16;100613.00;;;20.76;48.51
56518;BME280;42419;48.760;2.322;2023-05-10T03:29:44;100594.75;;;20.66;48.46
56518;BME280;42419;48.760;2.322;2023-05-10T03:32:11;100592.13;;;20.64;48.41
56518;BME280;42419;48.760;2.322;2023-05-10T03:34:41;100607.63;;;20.76;48.51
56518;BME280;42419;48.760;2.322;2023-05-10T03:37:08;100601.34;;;20.77;48.30
56518;BME280;42419;48.760;2.322;2023-05-10T03:39:33;100596.94;;;20.76;48.40
56518;BME280;42419;48.760;2.322;2023-05-10T03:41:58;100592.53;;;20.75;48.25
56518;BME280;42419;48.760;2.322;2023-05-10T03:44:24;100579.75;;;20.61;48.61
56518;BME280;42419;48.760;2.322;2023-05-10T03:46:49;100604.97;;;20.76;48.38
56518;BME280;42419;48.760;2.322;2023-05-10T03:49:14;100588.59;;;20.63;48.47
56518;BME280;42419;48.760;2.322;2023-05-10T03:51:40;100603.22;;;20.75;48.19
56518;BME280;42419;48.760;2.322;2023-05-10T03:54:05;100603.22;;;20.75;48.16
56518;BME280;42419;48.760;2.322;2023-05-10T03:56:30;100602.59;;;20.70;48.19
56518;BME280;42419;48.760;2.322;2023-05-10T03:58:55;100603.22;;;20.75;48.33
56518;BME280;42419;48.760;2.322;2023-05-10T04:01:21;100589.00;;;20.75;48.08
56518;BME280;42419;48.760;2.322;2023-05-10T04:03:46;100593.59;;;20.71;48.09
56518;BME280;42419;48.760;2.322;2023-05-10T04:06:11;100596.22;;;20.73;48.09
56518;BME280;42419;48.760;2.322;2023-05-10T04:08:37;100598.75;;;20.76;48.23
56518;BME280;42419;48.760;2.322;2023-05-10T04:11:07;100594.34;;;20.75;48.03
56518;BME280;42419;48.760;2.322;2023-05-10T04:13:33;100591.69;;;20.75;48.13
56518;BME280;42419;48.760;2.322;2023-05-10T04:15:58;100508.81;;;20.33;47.86
56518;BME280;42419;48.760;2.322;2023-05-10T04:18:23;100583.66;;;20.75;48.09
56518;BME280;42419;48.760;2.322;2023-05-10T04:20:49;100585.47;;;20.74;47.89
56518;BME280;42419;48.760;2.322;2023-05-10T04:23:14;100568.72;;;20.69;48.16
56518;BME280;42419;48.760;2.322;2023-05-10T04:25:41;100580.22;;;20.71;47.91
56518;BME280;42419;48.760;2.322;2023-05-10T04:28:06;100579.22;;;20.74;47.77
56518;BME280;42419;48.760;2.322;2023-05-10T04:30:32;100590.81;;;20.74;47.76
56518;BME280;42419;48.760;2.322;2023-05-10T04:32:57;100590.81;;;20.74;47.95
56518;BME280;42419;48.760;2.322;2023-05-10T04:35:23;100586.59;;;20.69;47.80
56518;BME280;42419;48.760;2.322;2023-05-10T04:37:48;100589.06;;;20.73;47.87
56518;BME280;42419;48.760;2.322;2023-05-10T04:40:13;100587.25;;;20.74;47.99
56518;BME280;42419;48.760;2.322;2023-05-10T04:42:43;100586.38;;;20.73;47.78
56518;BME280;42419;48.760;2.322;2023-05-10T04:45:09;100573.28;;;20.67;47.77
56518;BME280;42419;48.760;2.322;2023-05-10T04:47:35;100581.91;;;20.74;48.02
56518;BME280;42419;48.760;2.322;2023-05-10T04:50:02;100580.09;;;20.74;48.35
56518;BME280;42419;48.760;2.322;2023-05-10T04:52:27;100577.44;;;20.74;47.97
56518;BME280;42419;48.760;2.322;2023-05-10T04:54:53;100498.28;;;20.30;48.01
56518;BME280;42419;48.760;2.322;2023-05-10T04:57:18;100572.84;;;20.76;48.12
56518;BME280;42419;48.760;2.322;2023-05-10T04:59:43;100564.31;;;20.68;48.25
56518;BME280;42419;48.760;2.322;2023-05-10T05:02:08;100578.16;;;20.78;48.45
56518;BME280;42419;48.760;2.322;2023-05-10T05:04:34;100572.81;;;20.78;48.25
56518;BME280;42419;48.760;2.322;2023-05-10T05:06:59;100567.38;;;20.79;47.98
56518;BME280;42419;48.760;2.322;2023-05-10T05:09:24;100578.88;;;20.81;48.16
56518;BME280;42419;48.760;2.322;2023-05-10T05:11:50;100568.31;;;20.78;48.76
56518;BME280;42419;48.760;2.322;2023-05-10T05:14:15;100558.97;;;20.68;48.68
56518;BME280;42419;48.760;2.322;2023-05-10T05:16:40;100560.50;;;20.74;49.06
56518;BME280;42419;48.760;2.322;2023-05-10T05:19:06;100577.75;;;20.87;49.24
56518;BME280;42419;48.760;2.322;2023-05-10T05:21:31;100556.28;;;20.68;49.22
56518;BME280;42419;48.760;2.322;2023-05-10T05:23:57;100590.09;;;20.89;48.92
56518;BME280;42419;48.760;2.322;2023-05-10T05:26:23;100582.94;;;20.90;48.94
56518;BME280;42419;48.760;2.322;2023-05-10T05:28:48;100594.53;;;20.90;48.91
56518;BME280;42419;48.760;2.322;2023-05-10T05:31:16;100587.31;;;20.92;48.74
56518;BME280;42419;48.760;2.322;2023-05-10T05:33:42;100595.34;;;20.92;49.53
56518;BME280;42419;48.760;2.322;2023-05-10T05:36:08;100605.94;;;20.94;49.35
56518;BME280;42419;48.760;2.322;2023-05-10T05:38:34;100584.69;;;20.91;49.26
56518;BME280;42419;48.760;2.322;2023-05-10T05:40:59;100589.84;;;20.95;49.57
56518;BME280;42419;48.760;2.322;2023-05-10T05:43:25;100587.16;;;20.95;49.60
56518;BME280;42419;48.760;2.322;2023-05-10T05:45:52;100599.59;;;20.96;49.78
56518;BME280;42419;48.760;2.322;2023-05-10T05:48:18;100595.97;;;20.97;49.87
56518;BME280;42419;48.760;2.322;2023-05-10T05:50:43;100595.91;;;20.99;50.00
56518;BME280;42419;48.760;2.322;2023-05-10T05:53:08;100606.56;;;21.00;50.18
56518;BME280;42419;48.760;2.322;2023-05-10T05:55:34;100607.44;;;21.01;50.54
56518;BME280;42419;48.760;2.322;2023-05-10T05:57:59;100585.63;;;20.90;50.31
56518;BME280;42419;48.760;2.322;2023-05-10T06:00:24;100609.97;;;21.04;50.24
56518;BME280;42419;48.760;2.322;2023-05-10T06:02:50;100598.63;;;20.97;50.24
56518;BME280;42419;48.760;2.322;2023-05-10T06:05:16;100612.56;;;21.05;50.12
56518;BME280;42419;48.760;2.322;2023-05-10T06:07:41;100621.53;;;21.04;49.94
56518;BME280;42419;48.760;2.322;2023-05-10T06:10:07;100618.84;;;21.04;49.61
56518;BME280;42419;48.760;2.322;2023-05-10T06:12:33;100603.22;;;20.95;49.49
56518;BME280;42419;48.760;2.322;2023-05-10T06:14:58;100626.94;;;21.03;49.85
56518;BME280;42419;48.760;2.322;2023-05-10T06:17:24;100613.91;;;20.95;49.51
56518;BME280;42419;48.760;2.322;2023-05-10T06:19:50;100599.19;;;20.85;49.31
56518;BME280;42419;48.760;2.322;2023-05-10T06:22:15;100624.28;;;21.03;49.18
56518;BME280;42419;48.760;2.322;2023-05-10T06:24:40;100619.28;;;20.95;49.16
56518;BME280;42419;48.760;2.322;2023-05-10T06:27:06;100619.94;;;21.00;49.13
56518;BME280;42419;48.760;2.322;2023-05-10T06:29:32;100622.63;;;21.00;49.08
56518;BME280;42419;48.760;2.322;2023-05-10T06:31:57;100610.53;;;20.92;48.95
56518;BME280;42419;48.760;2.322;2023-05-10T06:34:22;100621.81;;;20.98;48.85
56518;BME280;42419;48.760;2.322;2023-05-10T06:36:51;100615.00;;;20.91;49.03
56518;BME280;42419;48.760;2.322;2023-05-10T06:39:16;100609.03;;;20.85;48.90
56518;BME280;42419;48.760;2.322;2023-05-10T06:41:42;100623.03;;;20.91;48.71
56518;BME280;42419;48.760;2.322;2023-05-10T06:44:07;100575.22;;;20.63;48.71
56518;BME280;42419;48.760;2.322;2023-05-10T06:46:33;100628.38;;;20.91;48.93
56518;BME280;42419;48.760;2.322;2023-05-10T06:48:58;100635.38;;;20.94;48.86
56518;BME280;42419;48.760;2.322;2023-05-10T06:51:24;100638.16;;;20.92;48.48
56518;BME280;42419;48.760;2.322;2023-05-10T06:53:49;100648.00;;;20.92;48.43
56518;BME280;42419;48.760;2.322;2023-05-10T06:56:14;100648.00;;;20.92;48.61
56518;BME280;42419;48.760;2.322;2023-05-10T06:58:40;100640.84;;;20.92;48.44
56518;BME280;42419;48.760;2.322;2023-05-10T07:01:05;100609.53;;;20.74;48.15
56518;BME280;42419;48.760;2.322;2023-05-10T07:03:31;100640.38;;;20.83;48.37
56518;BME280;42419;48.760;2.322;2023-05-10T07:06:01;100648.91;;;20.91;48.35
56518;BME280;42419;48.760;2.322;2023-05-10T07:08:28;100655.13;;;20.91;48.32
56518;BME280;42419;48.760;2.322;2023-05-10T07:11:07;100632.53;;;20.78;48.05
56518;BME280;42419;48.760;2.322;2023-05-10T07:13:33;100643.91;;;20.83;48.05
56518;BME280;42419;48.760;2.322;2023-05-10T07:15:59;100654.28;;;20.91;48.09
56518;BME280;42419;48.760;2.322;2023-05-10T07:18:25;100656.06;;;20.90;48.15
56518;BME280;42419;48.760;2.322;2023-05-10T07:20:51;100656.94;;;20.91;47.89
56518;BME280;42419;48.760;2.322;2023-05-10T07:23:17;100660.50;;;20.91;47.97
56518;BME280;42419;48.760;2.322;2023-05-10T07:25:45;100661.44;;;20.90;47.82
56518;BME280;42419;48.760;2.322;2023-05-10T07:28:11;100649.13;;;20.86;47.85
56518;BME280;42419;48.760;2.322;2023-05-10T07:30:36;100655.13;;;20.91;47.97
56518;BME280;42419;48.760;2.322;2023-05-10T07:33:01;100658.69;;;20.92;47.73
56518;BME280;42419;48.760;2.322;2023-05-10T07:35:26;100654.22;;;20.92;47.99
56518;BME280;42419;48.760;2.322;2023-05-10T07:37:52;100651.75;;;20.88;47.60
56518;BME280;42419;48.760;2.322;2023-05-10T07:40:17;100664.91;;;20.92;47.73
56518;BME280;42419;48.760;2.322;2023-05-10T07:42:42;100663.16;;;20.91;47.63
56518;BME280;42419;48.760;2.322;2023-05-10T07:45:08;100670.28;;;20.92;47.64
56518;BME280;42419;48.760;2.322;2023-05-10T07:47:33;100658.69;;;20.92;47.50
56518;BME280;42419;48.760;2.322;2023-05-10T07:49:59;100665.84;;;20.91;47.74
56518;BME280;42419;48.760;2.322;2023-05-10T07:52:24;100666.72;;;20.92;47.61
56518;BME280;42419;48.760;2.322;2023-05-10T07:54:49;100659.78;;;20.88;47.58
56518;BME280;42419;48.760;2.322;2023-05-10T07:57:15;100664.91;;;20.92;47.50
56518;BME280;42419;48.760;2.322;2023-05-10T07:59:42;100660.41;;;20.93;47.38
56518;BME280;42419;48.760;2.322;2023-05-10T08:02:08;100669.31;;;20.93;47.42
56518;BME280;42419;48.760;2.322;2023-05-10T08:04:33;100661.28;;;20.93;47.43
56518;BME280;42419;48.760;2.322;2023-05-10T08:06:58;100676.41;;;20.94;47.33
56518;BME280;42419;48.760;2.322;2023-05-10T08:09:24;100671.06;;;20.94;47.40
56518;BME280;42419;48.760;2.322;2023-05-10T08:11:50;100677.28;;;20.95;47.42
56518;BME280;42419;48.760;2.322;2023-05-10T08:14:16;100669.25;;;20.95;47.46
56518;BME280;42419;48.760;2.322;2023-05-10T08:16:41;100673.72;;;20.94;47.25
56518;BME280;42419;48.760;2.322;2023-05-10T08:19:06;100678.16;;;20.95;46.99
56518;BME280;42419;48.760;2.322;2023-05-10T08:21:32;100675.47;;;20.95;47.20
56518;BME280;42419;48.760;2.322;2023-05-10T08:23:57;100645.09;;;20.76;47.31
56518;BME280;42419;48.760;2.322;2023-05-10T08:26:22;100671.94;;;20.95;47.13
56518;BME280;42419;48.760;2.322;2023-05-10T08:28:48;100674.75;;;20.92;47.26
56518;BME280;42419;48.760;2.322;2023-05-10T08:31:15;100680.84;;;20.95;47.11
56518;BME280;42419;48.760;2.322;2023-05-10T08:33:41;100679.13;;;20.93;47.02
56518;BME280;42419;48.760;2.322;2023-05-10T08:36:06;100660.06;;;20.80;47.11
56518;BME280;42419;48.760;2.322;2023-05-10T08:38:31;100691.53;;;20.95;47.09
56518;BME280;42419;48.760;2.322;2023-05-10T08:40:57;100695.34;;;20.90;47.24
56518;BME280;42419;48.760;2.322;2023-05-10T08:43:27;100678.63;;;20.85;47.12
56518;BME280;42419;48.760;2.322;2023-05-10T08:45:56;100696.88;;;20.95;47.06
56518;BME280;42419;48.760;2.322;2023-05-10T08:48:25;100697.69;;;20.97;47.02
56518;BME280;42419;48.760;2.322;2023-05-10T08:50:53;100702.97;;;20.99;46.86
56518;BME280;42419;48.760;2.322;2023-05-10T08:53:22;100689.06;;;20.91;46.96
56518;BME280;42419;48.760;2.322;2023-05-10T08:55:49;100712.69;;;21.01;46.81
56518;BME280;42419;48.760;2.322;2023-05-10T08:58:15;100724.19;;;21.03;47.01
56518;BME280;42419;48.760;2.322;2023-05-10T09:00:40;100715.22;;;21.04;46.97
56518;BME280;42419;48.760;2.322;2023-05-10T09:03:06;100726.72;;;21.06;46.95
56518;BME280;42419;48.760;2.322;2023-05-10T09:05:32;100698.84;;;20.92;46.84
56518;BME280;42419;48.760;2.322;2023-05-10T09:07:57;100726.72;;;21.06;46.93
56518;BME280;42419;48.760;2.322;2023-05-10T09:10:25;100733.81;;;21.07;46.96
56518;BME280;42419;48.760;2.322;2023-05-10T09:12:53;100728.47;;;21.07;46.88
56518;BME280;42419;48.760;2.322;2023-05-10T09:15:19;100737.44;;;21.06;46.95
56518;BME280;42419;48.760;2.322;2023-05-10T09:17:45;100736.34;;;21.10;46.72
56518;BME280;42419;48.760;2.322;2023-05-10T09:20:10;100748.81;;;21.12;46.73
56518;BME280;42419;48.760;2.322;2023-05-10T09:22:36;100736.44;;;21.09;46.50
56518;BME280;42419;48.760;2.322;2023-05-10T09:25:12;100743.34;;;21.15;46.91
56518;BME280;42419;48.760;2.322;2023-05-10T09:27:39;100753.19;;;21.14;46.64
56518;BME280;42419;48.760;2.322;2023-05-10T09:30:06;100753.13;;;21.16;46.56
56518;BME280;42419;48.760;2.322;2023-05-10T09:32:42;100726.19;;;20.98;46.52
56518;BME280;42419;48.760;2.322;2023-05-10T09:37:39;100765.59;;;21.17;46.96
56518;BME280;42419;48.760;2.322;2023-05-10T09:40:07;100746.28;;;21.08;46.65
56518;BME280;42419;48.760;2.322;2023-05-10T09:42:34;100736.78;;;21.01;46.90
56518;BME280;42419;48.760;2.322;2023-05-10T09:45:02;100764.66;;;21.18;46.92
56518;BME280;42419;48.760;2.322;2023-05-10T09:47:27;100770.00;;;21.18;46.56
56518;BME280;42419;48.760;2.322;2023-05-10T09:49:53;100780.66;;;21.19;46.76
56518;BME280;42419;48.760;2.322;2023-05-10T09:52:20;100772.63;;;21.19;46.47
56518;BME280;42419;48.760;2.322;2023-05-10T09:54:52;100776.16;;;21.20;46.66
56518;BME280;42419;48.760;2.322;2023-05-10T09:57:20;100773.47;;;21.20;46.78
56518;BME280;42419;48.760;2.322;2023-05-10T09:59:46;100793.09;;;21.20;46.41
56518;BME280;42419;48.760;2.322;2023-05-10T10:02:12;100781.50;;;21.20;46.56
56518;BME280;42419;48.760;2.322;2023-05-10T10:04:41;100779.91;;;21.16;46.50
56518;BME280;42419;48.760;2.322;2023-05-10T10:07:07;100793.09;;;21.20;46.75
56518;BME280;42419;48.760;2.322;2023-05-10T10:09:33;100798.53;;;21.19;46.54
56518;BME280;42419;48.760;2.322;2023-05-10T10:12:00;100797.66;;;21.18;46.57
56518;BME280;42419;48.760;2.322;2023-05-10T10:14:26;100780.94;;;21.12;46.61
56518;BME280;42419;48.760;2.322;2023-05-10T10:16:52;100778.25;;;21.12;46.62
56518;BME280;42419;48.760;2.322;2023-05-10T10:19:21;100770.38;;;21.08;46.76
56518;BME280;42419;48.760;2.322;2023-05-10T10:21:47;100779.78;;;21.19;46.41
56518;BME280;42419;48.760;2.322;2023-05-10T10:24:13;100794.97;;;21.18;46.46
56518;BME280;42419;48.760;2.322;2023-05-10T10:26:38;100772.16;;;21.08;46.49
56518;BME280;42419;48.760;2.322;2023-05-10T10:29:27;100786.06;;;21.18;46.58
56518;BME280;42419;48.760;2.322;2023-05-10T10:32:10;100783.50;;;21.15;46.44
56518;BME280;42419;48.760;2.322;2023-05-10T10:34:38;100777.38;;;21.11;46.32
56518;BME280;42419;48.760;2.322;2023-05-10T10:37:05;100783.63;;;21.12;46.40
56518;BME280;42419;48.760;2.322;2023-05-10T10:39:31;100787.03;;;21.15;46.47
56518;BME280;42419;48.760;2.322;2023-05-10T10:41:58;100787.88;;;21.17;46.35
56518;BME280;42419;48.760;2.322;2023-05-10T10:49:51;100788.69;;;21.19;46.42
56518;BME280;42419;48.760;2.322;2023-05-10T10:57:32;100772.03;;;21.11;46.51
56518;BME280;42419;48.760;2.322;2023-05-10T11:02:46;100795.72;;;21.22;46.20
56518;BME280;42419;48.760;2.322;2023-05-10T11:07:59;100784.06;;;21.23;46.13
56518;BME280;42419;48.760;2.322;2023-05-10T11:10:26;100788.59;;;21.21;46.14
56518;BME280;42419;48.760;2.322;2023-05-10T11:13:05;100780.47;;;21.24;46.20
56518;BME280;42419;48.760;2.322;2023-05-10T11:15:31;100785.81;;;21.24;46.44
56518;BME280;42419;48.760;2.322;2023-05-10T11:17:57;100783.97;;;21.24;46.30
56518;BME280;42419;48.760;2.322;2023-05-10T11:20:23;100783.00;;;21.27;46.58
56518;BME280;42419;48.760;2.322;2023-05-10T11:22:52;100783.00;;;21.27;46.37
56518;BME280;42419;48.760;2.322;2023-05-10T11:25:18;100774.91;;;21.28;46.43
56518;BME280;42419;48.760;2.322;2023-05-10T11:27:47;100774.81;;;21.30;46.68
56518;BME280;42419;48.760;2.322;2023-05-10T11:30:14;100779.25;;;21.31;46.57
56518;BME280;42419;48.760;2.322;2023-05-10T11:32:40;100772.13;;;21.30;46.92
56518;BME280;42419;48.760;2.322;2023-05-10T11:35:10;100772.13;;;21.30;46.38
56518;BME280;42419;48.760;2.322;2023-05-10T11:37:37;100744.97;;;21.19;46.51
56518;BME280;42419;48.760;2.322;2023-05-10T11:40:07;100771.16;;;21.32;46.37
56518;BME280;42419;48.760;2.322;2023-05-10T11:42:32;100780.84;;;21.35;46.48
56518;BME280;42419;48.760;2.322;2023-05-10T11:45:00;100764.19;;;21.28;46.39
56518;BME280;42419;48.760;2.322;2023-05-10T11:47:25;100784.41;;;21.35;46.69
56518;BME280;42419;48.760;2.322;2023-05-10T11:49:51;100739.69;;;21.17;46.96
56518;BME280;42419;48.760;2.322;2023-05-10T11:52:18;100780.69;;;21.38;46.92
56518;BME280;42419;48.760;2.322;2023-05-10T11:54:54;100772.59;;;21.39;47.65
56518;BME280;42419;48.760;2.322;2023-05-10T11:57:20;100773.41;;;21.41;47.49
56518;BME280;42419;48.760;2.322;2023-05-10T11:59:53;100768.06;;;21.41;47.49
56518;BME280;42419;48.760;2.322;2023-05-10T12:02:19;100772.25;;;21.47;47.40
56518;BME280;42419;48.760;2.322;2023-05-10T12:04:45;100765.97;;;21.48;47.60
56518;BME280;42419;48.760;2.322;2023-05-10T12:07:10;100761.41;;;21.50;47.43
56518;BME280;42419;48.760;2.322;2023-05-10T12:09:36;100757.72;;;21.52;47.10
56518;BME280;42419;48.760;2.322;2023-05-10T12:12:02;100732.22;;;21.44;47.54
56518;BME280;42419;48.760;2.322;2023-05-10T12:14:27;100745.72;;;21.61;47.47
56518;BME280;42419;48.760;2.322;2023-05-10T12:16:53;100745.56;;;21.64;47.36
56518;BME280;42419;48.760;2.322;2023-05-10T12:19:19;100727.25;;;21.55;47.47
56518;BME280;42419;48.760;2.322;2023-05-10T12:21:47;100749.78;;;21.70;47.10
56518;BME280;42419;48.760;2.322;2023-05-10T12:24:13;100746.16;;;21.71;47.50
56518;BME280;42419;48.760;2.322;2023-05-10T12:26:39;100745.28;;;21.70;47.23
56518;BME280;42419;48.760;2.322;2023-05-10T12:29:18;100724.44;;;21.58;47.04
56518;BME280;42419;48.760;2.322;2023-05-10T12:31:55;100755.22;;;21.68;46.92
56518;BME280;42419;48.760;2.322;2023-05-10T12:34:32;100778.47;;;21.68;47.01
56518;BME280;42419;48.760;2.322;2023-05-10T12:36:58;100784.81;;;21.65;47.25
56518;BME280;42419;48.760;2.322;2023-05-10T12:39:24;100780.41;;;21.64;47.01
56518;BME280;42419;48.760;2.322;2023-05-10T12:41:50;100766.38;;;21.59;47.29
56518;BME280;42419;48.760;2.322;2023-05-10T12:44:15;100762.59;;;21.63;47.17
56518;BME280;42419;48.760;2.322;2023-05-10T12:46:41;100756.28;;;21.64;46.73
56518;BME280;42419;48.760;2.322;2023-05-10T12:49:06;100758.84;;;21.67;47.05
56518;BME280;42419;48.760;2.322;2023-05-10T12:51:31;100753.38;;;21.69;47.38
56518;BME280;42419;48.760;2.322;2023-05-10T12:53:57;100754.41;;;21.66;46.91
56518;BME280;42419;48.760;2.322;2023-05-10T12:56:22;100751.47;;;21.72;47.24
56518;BME280;42419;48.760;2.322;2023-05-10T12:58:48;100745.09;;;21.75;47.21
56518;BME280;42419;48.760;2.322;2023-05-10T13:01:14;100752.13;;;21.77;47.11
56518;BME280;42419;48.760;2.322;2023-05-10T13:03:39;100746.63;;;21.80;46.89
56518;BME280;42419;48.760;2.322;2023-05-10T13:06:05;100741.09;;;21.83;47.05
56518;BME280;42419;48.760;2.322;2023-05-10T13:08:31;100716.63;;;21.72;46.92
56518;BME280;42419;48.760;2.322;2023-05-10T13:11:03;100726.91;;;21.81;46.87
56518;BME280;42419;48.760;2.322;2023-05-10T13:13:28;100703.22;;;21.72;47.08
56518;BME280;42419;48.760;2.322;2023-05-10T13:15:53;100732.81;;;21.89;47.34
56518;BME280;42419;48.760;2.322;2023-05-10T13:18:19;100715.31;;;21.81;47.24
56518;BME280;42419;48.760;2.322;2023-05-10T13:20:44;100729.25;;;21.89;47.00
56518;BME280;42419;48.760;2.322;2023-05-10T13:23:10;100733.75;;;21.88;47.23
56518;BME280;42419;48.760;2.322;2023-05-10T13:25:35;100725.88;;;21.84;47.07